Time;durP1;ratioP1;P1;durP2;ratioP2;P2;SDS_P1;SDS_P2;PMS_P1;PMS_P2;Temp;Humidity;BMP_temperature;BMP_pressure;BME280_temperature;BME280_humidity;BME280_pressure;Samples;Min_cycle;Max_cycle;Signal;HPM_P1;HPM_P2
2023/02/07 00:01:26;;;;;;;31.92;10.25;;;0.30;99.90;;;;;;5952435;24;20020;-82
2023/02/07 00:04:15;;;;;;;37.58;11.73;;;0.60;99.90;;;;;;5954432;24;20013;-82
2023/02/07 00:07:00;;;;;;;40.65;12.90;;;0.30;99.90;;;;;;5969281;24;20070;-82
2023/02/07 00:13:30;;;;;;;32.20;10.90;;;0.30;99.90;;;;;;5975594;24;20538;-82
2023/02/07 00:16:48;;;;;;;48.45;13.13;;;0.10;99.90;;;;;;5937199;23;20468;-82
2023/02/07 00:19:39;;;;;;;34.13;12.23;;;0.70;99.90;;;;;;5978120;23;20024;-84
2023/02/07 00:29:31;;;;;;;49.40;14.23;;;0.60;99.90;;;;;;5992618;23;20094;-82
2023/02/07 00:32:28;;;;;;;40.58;13.65;;;-0.10;99.90;;;;;;6005621;23;20023;-83
2023/02/07 00:35:05;;;;;;;44.45;13.25;;;0.20;99.90;;;;;;6005739;23;20064;-80
2023/02/07 00:37:52;;;;;;;40.70;11.75;;;0.40;99.90;;;;;;6018840;23;20076;-80
2023/02/07 00:40:22;;;;;;;43.05;13.88;;;-0.20;99.90;;;;;;5983229;23;20350;-81
2023/02/07 00:42:48;;;;;;;50.13;15.98;;;0.40;99.90;;;;;;6003426;23;20019;-81
2023/02/07 00:45:14;;;;;;;41.50;13.02;;;0.50;99.90;;;;;;6017531;23;20111;-81
2023/02/07 00:47:40;;;;;;;43.17;14.18;;;0.10;99.90;;;;;;6092352;23;20343;-81
2023/02/07 00:50:09;;;;;;;40.95;13.73;;;-0.10;99.90;;;;;;6104024;23;20027;-82
2023/02/07 00:52:35;;;;;;;34.78;12.35;;;0.50;99.90;;;;;;6156654;23;20071;-81
2023/02/07 00:55:00;;;;;;;37.78;13.40;;;-0.30;99.90;;;;;;6156325;23;20445;-81
2023/02/07 00:57:26;;;;;;;39.03;13.18;;;-0.10;99.90;;;;;;6182619;23;20013;-81
2023/02/07 00:59:54;;;;;;;42.28;14.18;;;-0.30;99.90;;;;;;6158008;23;20013;-82
2023/02/07 01:02:23;;;;;;;47.65;14.18;;;-0.30;99.90;;;;;;6181454;23;20017;-81
2023/02/07 01:04:49;;;;;;;49.85;15.20;;;-0.10;99.90;;;;;;6156391;23;20017;-82
2023/02/07 01:07:14;;;;;;;49.65;15.30;;;-0.30;99.90;;;;;;6182581;23;20061;-82
2023/02/07 01:09:40;;;;;;;54.42;16.52;;;-0.10;99.90;;;;;;6182338;23;20047;-82
2023/02/07 01:12:06;;;;;;;53.15;17.50;;;0.40;99.90;;;;;;6157470;23;20668;-82
2023/02/07 01:14:32;;;;;;;56.15;17.33;;;0.50;99.90;;;;;;6156731;23;20021;-82
2023/02/07 01:16:58;;;;;;;65.43;17.25;;;0.40;99.90;;;;;;6180923;23;20036;-82
2023/02/07 01:19:23;;;;;;;40.80;15.50;;;0.00;99.90;;;;;;6156269;23;20017;-82
2023/02/07 01:21:49;;;;;;;47.42;16.35;;;0.40;99.90;;;;;;6154603;23;20460;-82
2023/02/07 01:24:16;;;;;;;37.88;15.23;;;-0.10;99.90;;;;;;6154007;23;20017;-82
2023/02/07 01:26:41;;;;;;;46.92;15.85;;;-0.30;99.90;;;;;;6179091;23;20092;-82
2023/02/07 01:29:09;;;;;;;39.33;14.95;;;-0.20;99.90;;;;;;6155204;23;20533;-82
2023/02/07 01:31:37;;;;;;;54.00;16.13;;;-0.20;99.90;;;;;;6155715;23;20420;-82
2023/02/07 01:34:03;;;;;;;41.35;15.38;;;-0.10;99.90;;;;;;6154675;23;20017;-82
2023/02/07 01:36:29;;;;;;;52.33;16.67;;;-0.10;99.90;;;;;;6153489;23;20017;-82
2023/02/07 01:39:13;;;;;;;51.17;17.42;;;0.10;99.90;;;;;;6152783;23;20020;-81
2023/02/07 01:41:39;;;;;;;48.80;16.23;;;-0.50;99.90;;;;;;6155258;23;20291;-82
2023/02/07 01:44:27;;;;;;;51.10;17.50;;;0.30;99.90;;;;;;6154516;23;20036;-82
2023/02/07 01:46:55;;;;;;;57.63;18.38;;;-0.10;99.90;;;;;;6123634;23;20104;-81
2023/02/07 01:49:24;;;;;;;54.22;17.80;;;-0.30;99.90;;;;;;6101300;23;20462;-82
2023/02/07 01:52:01;;;;;;;55.67;18.42;;;0.00;99.90;;;;;;6125321;23;20033;-82
2023/02/07 01:54:31;;;;;;;56.17;18.15;;;-0.30;99.90;;;;;;6098277;23;20018;-81
2023/02/07 01:57:00;;;;;;;61.95;20.02;;;-0.30;99.90;;;;;;6125293;23;20009;-82
2023/02/07 01:59:28;;;;;;;54.50;18.33;;;-0.10;99.90;;;;;;6100327;23;20091;-81
2023/02/07 02:01:55;;;;;;;54.35;19.02;;;0.00;99.90;;;;;;6100276;23;20017;-81
2023/02/07 02:04:24;;;;;;;67.55;20.00;;;-0.20;99.90;;;;;;6100968;23;20073;-81
2023/02/07 02:06:51;;;;;;;57.95;18.38;;;0.00;99.90;;;;;;6101883;23;20028;-81
2023/02/07 02:13:33;;;;;;;65.35;19.55;;;0.00;99.90;;;;;;6152210;23;20024;-81
2023/02/07 02:16:31;;;;;;;60.60;21.27;;;0.10;99.90;;;;;;6013029;23;20082;-80
2023/02/07 02:19:30;;;;;;;78.25;22.33;;;0.10;99.90;;;;;;6037162;23;20042;-80
2023/02/07 02:22:37;;;;;;;60.83;20.35;;;-0.10;99.90;;;;;;6038409;23;20067;-80
2023/02/07 02:25:56;;;;;;;75.18;21.67;;;-0.50;99.90;;;;;;6041199;23;20018;-81
2023/02/07 02:28:59;;;;;;;77.70;23.27;;;0.10;99.90;;;;;;6059558;23;20095;-80
2023/02/07 02:31:54;;;;;;;66.78;23.13;;;-0.30;99.90;;;;;;6036287;23;20085;-82
2023/02/07 02:34:42;;;;;;;82.38;24.20;;;0.10;99.90;;;;;;6034743;23;20031;-82
2023/02/07 02:37:26;;;;;;;83.88;25.70;;;0.10;99.90;;;;;;6012250;23;20018;-81
2023/02/07 02:40:09;;;;;;;81.30;23.20;;;-0.20;99.90;;;;;;6036088;23;20038;-81
2023/02/07 02:42:42;;;;;;;74.95;24.38;;;0.10;99.90;;;;;;6036357;23;20501;-81
2023/02/07 02:45:27;;;;;;;93.45;27.15;;;0.20;99.90;;;;;;6009493;23;20164;-81
2023/02/07 02:47:53;;;;;;;85.75;24.95;;;0.30;99.90;;;;;;6035059;23;20455;-81
2023/02/07 02:50:28;;;;;;;80.78;26.20;;;0.20;99.90;;;;;;6013201;23;20218;-82
2023/02/07 02:52:54;;;;;;;72.93;25.73;;;0.20;99.90;;;;;;6058099;23;20389;-81
2023/02/07 02:55:55;;;;;;;79.80;25.10;;;-0.20;99.90;;;;;;6099450;23;20022;-81
2023/02/07 02:58:39;;;;;;;76.45;24.33;;;0.20;99.90;;;;;;6100260;23;20009;-81
2023/02/07 03:01:17;;;;;;;72.43;26.03;;;-0.20;99.90;;;;;;6099280;23;20054;-81
2023/02/07 03:03:56;;;;;;;59.90;23.67;;;-0.40;99.90;;;;;;6099327;23;20010;-81
2023/02/07 03:06:55;;;;;;;66.20;23.70;;;0.10;99.90;;;;;;6100785;23;20040;-82
2023/02/07 03:09:39;;;;;;;79.38;25.30;;;0.00;99.90;;;;;;6100199;23;20096;-80
2023/02/07 03:12:40;;;;;;;73.93;25.25;;;0.10;99.90;;;;;;6098631;23;20013;-81
2023/02/07 03:15:17;;;;;;;62.92;22.75;;;-0.20;99.90;;;;;;6007653;23;20106;-81
2023/02/07 03:18:26;;;;;;;71.45;25.55;;;-0.30;99.90;;;;;;6006514;23;20099;-81
2023/02/07 03:21:11;;;;;;;89.55;27.85;;;-0.60;99.90;;;;;;5985014;23;20083;-81
2023/02/07 03:23:38;;;;;;;77.28;27.55;;;-0.40;99.90;;;;;;6005806;23;20356;-81
2023/02/07 03:26:06;;;;;;;74.40;26.67;;;-0.40;99.90;;;;;;5984208;23;20086;-81
2023/02/07 03:28:32;;;;;;;78.50;27.17;;;-0.50;99.90;;;;;;6008050;23;20019;-81
2023/02/07 03:31:01;;;;;;;85.85;29.15;;;-0.80;99.90;;;;;;6007270;23;20417;-81
2023/02/07 03:33:27;;;;;;;77.45;27.92;;;-0.30;99.90;;;;;;6007481;23;20077;-81
2023/02/07 03:36:15;;;;;;;71.63;27.20;;;-0.40;99.90;;;;;;6007849;23;20090;-81
2023/02/07 03:38:43;;;;;;;69.35;25.70;;;-0.90;99.90;;;;;;6006993;23;20480;-81
2023/02/07 03:41:22;;;;;;;79.18;28.35;;;-0.40;99.90;;;;;;6008392;23;20102;-81
2023/02/07 03:43:50;;;;;;;71.00;26.38;;;-0.90;99.90;;;;;;6007706;23;20043;-81
2023/02/07 03:46:17;;;;;;;68.47;26.88;;;-0.60;99.90;;;;;;6056556;23;20857;-81
2023/02/07 03:48:42;;;;;;;72.63;26.75;;;-1.10;99.90;;;;;;6088721;23;20046;-81
2023/02/07 03:51:08;;;;;;;76.18;27.92;;;-0.50;99.90;;;;;;6144013;23;20409;-81
2023/02/07 03:53:34;;;;;;;72.53;27.98;;;-0.50;99.90;;;;;;6178914;23;20111;-81
2023/02/07 03:55:59;;;;;;;93.50;30.25;;;-1.10;99.90;;;;;;6156131;23;20013;-81
2023/02/07 03:58:25;;;;;;;84.40;30.67;;;-0.90;99.90;;;;;;6156884;23;20020;-81
2023/02/07 04:00:51;;;;;;;78.97;29.00;;;-0.50;99.90;;;;;;6157291;23;20012;-81
2023/02/07 04:03:16;;;;;;;79.72;28.50;;;-0.50;99.90;;;;;;6153926;23;20044;-82
2023/02/07 04:05:44;;;;;;;71.25;28.73;;;-1.20;99.90;;;;;;6156384;23;20016;-81
2023/02/07 04:08:10;;;;;;;77.57;29.13;;;-1.10;99.90;;;;;;6155984;23;20017;-81
2023/02/07 04:10:36;;;;;;;84.03;28.92;;;-1.10;99.90;;;;;;6181152;23;20025;-82
2023/02/07 04:13:05;;;;;;;76.00;29.42;;;-0.90;99.90;;;;;;6154451;23;20039;-81
2023/02/07 04:15:31;;;;;;;75.53;28.55;;;-1.10;99.90;;;;;;6153286;23;20024;-82
2023/02/07 04:17:56;;;;;;;66.63;28.00;;;-0.60;99.90;;;;;;6152886;23;20017;-81
2023/02/07 04:20:22;;;;;;;70.63;28.27;;;-0.70;99.90;;;;;;6152637;23;20013;-81
2023/02/07 04:22:48;;;;;;;88.28;30.17;;;-0.80;99.90;;;;;;6154315;23;20017;-81
2023/02/07 04:25:13;;;;;;;87.15;30.65;;;-0.60;99.90;;;;;;6181947;23;20017;-81
2023/02/07 04:27:39;;;;;;;81.00;30.08;;;-0.70;99.90;;;;;;6155779;23;20016;-81
2023/02/07 04:30:05;;;;;;;80.10;29.75;;;-1.10;99.90;;;;;;6180167;23;20096;-81
2023/02/07 04:32:31;;;;;;;84.57;30.98;;;-1.10;99.90;;;;;;6178754;23;20390;-81
2023/02/07 04:34:57;;;;;;;87.82;32.22;;;-1.10;99.90;;;;;;6154011;23;20083;-81
2023/02/07 04:37:22;;;;;;;87.13;31.92;;;-0.70;99.90;;;;;;6154511;23;20493;-81
2023/02/07 04:39:48;;;;;;;74.63;30.77;;;-1.00;99.90;;;;;;6178579;23;20013;-81
2023/02/07 04:42:14;;;;;;;77.63;30.00;;;-1.30;99.90;;;;;;6153933;23;20271;-81
2023/02/07 04:44:39;;;;;;;85.65;31.23;;;-1.10;99.90;;;;;;6156190;23;20135;-81
2023/02/07 04:47:05;;;;;;;69.60;29.75;;;-1.40;99.90;;;;;;6156590;23;20444;-81
2023/02/07 04:49:31;;;;;;;69.60;29.45;;;-0.90;99.90;;;;;;6183078;23;20314;-81
2023/02/07 04:51:57;;;;;;;73.43;29.77;;;-1.10;99.90;;;;;;6155790;23;20017;-81
2023/02/07 04:54:22;;;;;;;81.47;30.73;;;-0.70;99.90;;;;;;6156599;23;20013;-81
2023/02/07 04:56:48;;;;;;;80.38;31.80;;;-0.80;99.90;;;;;;6182715;23;20017;-81
2023/02/07 04:59:14;;;;;;;83.75;31.20;;;-1.30;99.90;;;;;;6157711;23;20009;-81
2023/02/07 05:01:39;;;;;;;78.63;31.75;;;-0.80;99.90;;;;;;6155809;23;20021;-81
2023/02/07 05:04:05;;;;;;;73.88;30.50;;;-0.70;99.90;;;;;;6156506;23;20124;-81
2023/02/07 05:06:31;;;;;;;75.00;30.95;;;-0.90;99.90;;;;;;6157862;23;20013;-81
2023/02/07 05:08:56;;;;;;;74.82;30.65;;;-1.10;99.90;;;;;;6133023;23;20024;-81
2023/02/07 05:11:22;;;;;;;75.05;29.50;;;-1.00;99.90;;;;;;6156295;23;20013;-81
2023/02/07 05:13:48;;;;;;;72.35;30.40;;;-1.50;99.90;;;;;;6156918;23;20457;-81
2023/02/07 05:16:14;;;;;;;83.20;29.58;;;-0.90;99.90;;;;;;6181500;23;20184;-81
2023/02/07 05:18:40;;;;;;;73.25;31.27;;;-1.50;99.90;;;;;;6155709;23;20412;-81
2023/02/07 05:21:05;;;;;;;77.25;29.85;;;-0.80;99.90;;;;;;6157968;23;20111;-81
2023/02/07 05:23:31;;;;;;;77.65;29.35;;;-1.20;99.90;;;;;;6158181;23;20075;-81
2023/02/07 05:25:56;;;;;;;67.30;28.90;;;-1.30;99.90;;;;;;6185059;23;20346;-81
2023/02/07 05:28:22;;;;;;;73.65;29.65;;;-1.10;99.90;;;;;;6157804;23;20063;-81
2023/02/07 05:30:54;;;;;;;71.10;28.70;;;-1.30;99.90;;;;;;6156251;23;20074;-81
2023/02/07 05:33:20;;;;;;;66.82;29.27;;;-1.00;99.90;;;;;;6155665;23;20039;-81
2023/02/07 05:35:45;;;;;;;67.65;28.42;;;-1.70;99.90;;;;;;6179125;23;20113;-81
2023/02/07 05:38:14;;;;;;;64.45;28.27;;;-1.60;99.90;;;;;;6178361;23;20771;-81
2023/02/07 05:40:41;;;;;;;73.75;28.88;;;-1.00;99.90;;;;;;6154785;23;20126;-81
2023/02/07 05:43:09;;;;;;;64.18;27.17;;;-1.10;99.90;;;;;;6154327;23;20054;-81
2023/02/07 05:45:35;;;;;;;68.68;28.00;;;-1.20;99.90;;;;;;6178992;23;20021;-81
2023/02/07 05:48:01;;;;;;;64.80;29.30;;;-1.70;99.90;;;;;;6176940;23;20028;-81
2023/02/07 05:50:27;;;;;;;61.67;27.75;;;-1.40;99.90;;;;;;6179642;23;20433;-81
2023/02/07 05:52:53;;;;;;;68.03;27.45;;;-1.00;99.90;;;;;;6153274;23;20017;-81
2023/02/07 05:55:37;;;;;;;68.10;27.90;;;-1.70;99.90;;;;;;6156128;23;20040;-81
2023/02/07 05:58:03;;;;;;;71.22;28.10;;;-1.80;99.90;;;;;;6157449;23;20040;-81
2023/02/07 06:00:29;;;;;;;61.10;28.00;;;-1.60;99.90;;;;;;6156596;23;20009;-81
2023/02/07 06:02:55;;;;;;;67.63;27.70;;;-1.20;99.90;;;;;;6156465;23;20016;-80
2023/02/07 06:05:21;;;;;;;61.30;26.55;;;-1.10;99.90;;;;;;6156642;23;20044;-81
2023/02/07 06:07:49;;;;;;;58.55;25.67;;;-1.80;99.90;;;;;;6156339;23;20048;-84
2023/02/07 06:10:33;;;;;;;63.35;27.05;;;-1.00;99.90;;;;;;6156402;23;20020;-82
2023/02/07 06:12:58;;;;;;;60.28;25.42;;;-1.70;99.90;;;;;;6152824;23;20037;-82
2023/02/07 06:15:24;;;;;;;63.03;25.88;;;-1.70;99.90;;;;;;6155353;23;20083;-82
2023/02/07 06:17:50;;;;;;;66.93;26.58;;;-1.40;99.90;;;;;;6177432;23;20013;-82
2023/02/07 06:20:16;;;;;;;58.22;26.13;;;-1.30;99.90;;;;;;6154601;23;20028;-82
2023/02/07 06:22:41;;;;;;;58.30;25.42;;;-1.40;99.90;;;;;;6180533;23;20013;-82
2023/02/07 06:25:10;;;;;;;61.45;26.08;;;-1.80;99.90;;;;;;6155962;23;20420;-82
2023/02/07 06:27:37;;;;;;;59.20;25.40;;;-1.10;99.90;;;;;;6181154;23;20025;-82
2023/02/07 06:30:03;;;;;;;59.00;25.98;;;-1.20;99.90;;;;;;6156509;23;20088;-82
2023/02/07 06:32:31;;;;;;;55.05;25.45;;;-1.60;99.90;;;;;;6181043;23;20047;-83
2023/02/07 06:34:57;;;;;;;58.72;25.52;;;-1.70;99.90;;;;;;6192414;23;20295;-82
2023/02/07 06:37:23;;;;;;;52.92;26.38;;;-1.20;99.90;;;;;;6181238;23;20096;-81
2023/02/07 06:39:52;;;;;;;56.97;26.45;;;-1.40;99.90;;;;;;6154844;23;20294;-82
2023/02/07 06:42:17;;;;;;;57.42;27.77;;;-1.20;99.90;;;;;;6153596;23;20347;-82
2023/02/07 06:44:43;;;;;;;60.58;27.70;;;-1.50;99.90;;;;;;6151507;23;20036;-82
2023/02/07 06:47:09;;;;;;;58.40;27.92;;;-1.20;99.90;;;;;;6151222;23;20024;-82
2023/02/07 06:49:34;;;;;;;61.75;27.70;;;-1.30;99.90;;;;;;6180433;23;20370;-82
2023/02/07 06:52:00;;;;;;;58.70;27.20;;;-1.30;99.90;;;;;;6152737;23;20028;-82
2023/02/07 06:54:26;;;;;;;59.33;27.58;;;-1.50;99.90;;;;;;6153224;23;20431;-81
2023/02/07 06:56:52;;;;;;;58.78;27.90;;;-1.70;99.90;;;;;;6154640;23;20013;-80
2023/02/07 06:59:18;;;;;;;62.38;28.50;;;-1.20;99.90;;;;;;6152902;23;20047;-82
2023/02/07 07:01:47;;;;;;;62.97;27.33;;;-1.70;99.90;;;;;;6179963;23;20017;-81
2023/02/07 07:04:13;;;;;;;58.83;28.05;;;-1.80;99.90;;;;;;6165254;23;20028;-81
2023/02/07 07:06:39;;;;;;;56.50;27.35;;;-1.30;99.90;;;;;;6156391;23;20025;-81
2023/02/07 07:09:05;;;;;;;58.00;27.23;;;-1.70;99.90;;;;;;6152921;23;20835;-82
2023/02/07 07:11:31;;;;;;;58.70;26.98;;;-1.50;99.90;;;;;;6153501;23;20012;-81
2023/02/07 07:13:57;;;;;;;58.42;28.00;;;-1.90;99.90;;;;;;6152224;23;20020;-82
2023/02/07 07:16:23;;;;;;;65.22;27.73;;;-1.90;99.90;;;;;;6177539;23;20048;-82
2023/02/07 07:18:48;;;;;;;57.63;27.02;;;-1.70;99.90;;;;;;6177375;23;20013;-81
2023/02/07 07:21:14;;;;;;;57.97;25.73;;;-1.80;99.90;;;;;;6153578;23;20406;-82
2023/02/07 07:23:40;;;;;;;54.53;26.88;;;-1.90;99.90;;;;;;6154112;23;20059;-82
2023/02/07 07:26:06;;;;;;;55.03;26.33;;;-1.90;99.90;;;;;;6151383;23;20032;-82
2023/02/07 07:28:31;;;;;;;51.47;25.08;;;-1.90;99.90;;;;;;6154472;23;20442;-83
2023/02/07 07:31:02;;;;;;;53.90;25.23;;;-1.20;99.90;;;;;;6154303;23;20200;-82
2023/02/07 07:33:28;;;;;;;54.25;24.85;;;-1.20;99.90;;;;;;6176794;23;20167;-82
2023/02/07 07:36:00;;;;;;;45.20;23.05;;;-1.50;99.90;;;;;;6155171;23;20013;-83
2023/02/07 07:38:34;;;;;;;54.50;24.77;;;-1.20;99.90;;;;;;6156021;23;20009;-82
2023/02/07 07:41:03;;;;;;;45.42;23.50;;;-1.80;99.90;;;;;;6153971;23;20090;-83
2023/02/07 07:43:29;;;;;;;48.58;24.00;;;-1.80;99.90;;;;;;6152567;23;20013;-82
2023/02/07 07:45:58;;;;;;;47.90;23.98;;;-1.70;99.90;;;;;;6151716;23;20204;-82
2023/02/07 07:48:25;;;;;;;51.15;24.40;;;-1.10;99.90;;;;;;6177610;23;20287;-82
2023/02/07 07:50:52;;;;;;;50.45;24.17;;;-1.00;99.90;;;;;;6152347;23;20333;-82
2023/02/07 07:53:18;;;;;;;49.20;24.75;;;-1.10;99.90;;;;;;6149778;23;20013;-82
2023/02/07 07:55:49;;;;;;;50.70;25.02;;;-1.00;99.90;;;;;;6151977;23;20025;-82
2023/02/07 07:58:15;;;;;;;45.92;24.40;;;-1.60;99.90;;;;;;6154713;23;20071;-82
2023/02/07 08:00:41;;;;;;;47.13;23.33;;;-1.00;99.90;;;;;;6179113;23;20012;-82
2023/02/07 08:03:10;;;;;;;47.75;23.98;;;-1.20;99.90;;;;;;6154854;23;20346;-82
2023/02/07 08:05:47;;;;;;;54.70;25.02;;;-0.80;99.90;;;;;;6158443;23;20074;-81
2023/02/07 08:08:14;;;;;;;51.03;23.70;;;-1.60;99.90;;;;;;6182713;23;20520;-80
2023/02/07 08:10:42;;;;;;;56.08;24.15;;;-1.50;99.90;;;;;;6156594;23;20017;-79
2023/02/07 08:13:32;;;;;;;52.08;25.23;;;-1.40;99.90;;;;;;6157862;23;20063;-80
2023/02/07 08:16:00;;;;;;;47.63;24.48;;;-1.10;99.90;;;;;;6156183;23;20082;-80
2023/02/07 08:18:29;;;;;;;51.90;24.88;;;-0.90;99.90;;;;;;6157543;23;20013;-81
2023/02/07 08:21:04;;;;;;;45.35;24.63;;;-0.80;99.90;;;;;;6159151;23;20401;-80
2023/02/07 08:23:30;;;;;;;48.17;24.13;;;-1.50;99.90;;;;;;6157430;23;20012;-80
2023/02/07 08:26:24;;;;;;;46.85;24.98;;;-1.10;99.90;;;;;;6157247;23;20156;-80
2023/02/07 08:28:59;;;;;;;45.85;24.23;;;-0.80;99.90;;;;;;6150526;23;20017;-80
2023/02/07 08:31:33;;;;;;;50.22;23.30;;;-1.20;99.90;;;;;;6127641;23;20060;-81
2023/02/07 08:33:59;;;;;;;47.97;24.40;;;-1.10;99.90;;;;;;6130684;23;20013;-80
2023/02/07 08:36:35;;;;;;;47.33;23.92;;;-0.60;99.90;;;;;;6176538;23;20362;-80
2023/02/07 08:39:30;;;;;;;49.15;25.05;;;-1.30;99.90;;;;;;6129401;23;20013;-80
2023/02/07 08:42:29;;;;;;;47.22;23.55;;;-0.60;99.90;;;;;;6095150;23;20444;-81
2023/02/07 08:45:07;;;;;;;45.50;23.60;;;-0.70;99.90;;;;;;6004573;23;20094;-80
2023/02/07 08:47:44;;;;;;;46.42;23.80;;;-1.10;99.90;;;;;;5937710;23;20027;-80
2023/02/07 08:50:21;;;;;;;39.72;23.80;;;-1.10;99.90;;;;;;5979700;23;20019;-79
2023/02/07 08:52:55;;;;;;;42.42;22.95;;;-1.20;99.90;;;;;;5971162;23;20123;-82
2023/02/07 08:55:21;;;;;;;43.92;22.60;;;-0.50;99.90;;;;;;5953318;24;20058;-81
2023/02/07 08:57:55;;;;;;;39.03;22.90;;;-0.80;99.90;;;;;;5975388;24;20016;-80
2023/02/07 09:00:24;;;;;;;48.05;23.02;;;-0.50;99.90;;;;;;5923329;24;20080;-80
2023/02/07 09:02:52;;;;;;;42.80;23.08;;;-0.50;99.90;;;;;;5920830;24;20182;-79
2023/02/07 09:05:18;;;;;;;43.30;22.92;;;-0.30;99.90;;;;;;5904554;24;20120;-78
2023/02/07 09:07:43;;;;;;;40.45;22.67;;;-0.20;99.90;;;;;;5927379;24;20041;-78
2023/02/07 09:10:09;;;;;;;42.97;23.15;;;-0.40;99.90;;;;;;5942668;24;20016;-79
2023/02/07 09:12:36;;;;;;;42.72;21.75;;;-0.70;99.90;;;;;;5948760;23;20034;-78
2023/02/07 09:15:02;;;;;;;43.28;23.38;;;-0.60;99.90;;;;;;6039080;23;20092;-78
2023/02/07 09:17:28;;;;;;;41.05;23.83;;;-0.10;99.90;;;;;;6095221;23;20462;-79
2023/02/07 09:19:54;;;;;;;42.05;22.08;;;-0.10;99.90;;;;;;6071789;23;20129;-78
2023/02/07 09:22:19;;;;;;;38.85;22.27;;;-0.20;99.90;;;;;;6095499;23;20061;-79
2023/02/07 09:24:45;;;;;;;38.05;22.40;;;-0.60;99.90;;;;;;6128438;23;20013;-79
2023/02/07 09:27:11;;;;;;;41.80;22.48;;;-0.50;99.90;;;;;;6155631;23;20013;-79
2023/02/07 09:29:36;;;;;;;34.38;21.30;;;-0.60;99.90;;;;;;6156713;23;20100;-79
2023/02/07 09:32:07;;;;;;;36.05;21.40;;;-0.20;99.90;;;;;;6155029;23;20104;-80
2023/02/07 09:34:35;;;;;;;40.33;21.67;;;-0.30;99.90;;;;;;6154422;23;20057;-81
2023/02/07 09:37:01;;;;;;;45.50;21.80;;;-0.30;99.90;;;;;;6157019;23;20013;-81
2023/02/07 09:39:27;;;;;;;33.20;20.75;;;0.30;99.90;;;;;;6156935;23;20382;-81
2023/02/07 09:42:22;;;;;;;37.35;20.83;;;0.30;99.90;;;;;;6156986;23;20048;-81
2023/02/07 09:45:09;;;;;;;41.22;21.92;;;0.30;99.90;;;;;;6153546;23;20021;-81
2023/02/07 09:47:37;;;;;;;33.80;20.90;;;-0.20;99.90;;;;;;6178639;23;20025;-81
2023/02/07 09:50:09;;;;;;;37.17;21.13;;;-0.20;99.90;;;;;;6153898;23;20017;-81
2023/02/07 09:52:38;;;;;;;39.92;21.70;;;0.10;99.90;;;;;;6154224;23;20017;-81
2023/02/07 09:55:04;;;;;;;36.95;19.98;;;0.30;99.90;;;;;;6176739;23;20021;-80
2023/02/07 09:57:44;;;;;;;40.80;20.73;;;0.30;99.90;;;;;;6179084;23;20111;-81
2023/02/07 10:00:28;;;;;;;41.08;20.65;;;0.60;99.90;;;;;;6152809;23;20077;-81
2023/02/07 10:03:14;;;;;;;37.40;20.25;;;0.30;99.90;;;;;;6176685;23;20017;-82
2023/02/07 10:05:51;;;;;;;40.95;21.30;;;0.60;99.90;;;;;;6154624;23;20472;-80
2023/02/07 10:08:18;;;;;;;34.58;20.05;;;0.30;99.90;;;;;;6177160;23;20099;-82
2023/02/07 10:11:07;;;;;;;34.38;19.67;;;0.40;99.90;;;;;;6154517;23;20070;-82
2023/02/07 10:13:39;;;;;;;33.40;19.92;;;0.50;99.90;;;;;;6152547;23;20017;-83
2023/02/07 10:16:30;;;;;;;38.63;20.08;;;0.70;99.90;;;;;;6151123;23;20096;-83
2023/02/07 10:19:15;;;;;;;34.00;19.73;;;0.50;99.90;;;;;;6152178;23;20021;-82
2023/02/07 10:22:25;;;;;;;32.00;20.27;;;0.70;99.90;;;;;;6155237;23;20095;-83
2023/02/07 10:25:14;;;;;;;35.88;20.40;;;0.80;99.90;;;;;;6178328;23;20049;-83
2023/02/07 10:28:15;;;;;;;30.92;19.67;;;0.80;99.90;;;;;;6152722;23;20016;-83
2023/02/07 10:31:07;;;;;;;33.63;20.27;;;1.00;99.90;;;;;;6116867;23;20018;-82
2023/02/07 10:34:06;;;;;;;35.63;19.67;;;0.90;99.90;;;;;;6066903;23;20021;-82
2023/02/07 10:37:14;;;;;;;36.60;19.27;;;1.00;99.90;;;;;;6115484;23;20049;-82
2023/02/07 10:40:14;;;;;;;31.98;18.50;;;1.00;99.90;;;;;;6091736;23;20066;-81
2023/02/07 10:42:51;;;;;;;32.67;19.67;;;1.20;99.90;;;;;;5984561;23;20023;-82
2023/02/07 10:45:31;;;;;;;36.88;20.52;;;1.40;99.90;;;;;;6004341;23;20106;-81
2023/02/07 10:48:32;;;;;;;32.55;19.55;;;1.50;99.90;;;;;;6005302;23;20103;-81
2023/02/07 10:51:25;;;;;;;32.15;19.83;;;1.60;99.90;;;;;;6007856;23;20496;-81
2023/02/07 10:54:09;;;;;;;35.58;20.13;;;1.40;99.90;;;;;;6007396;23;20474;-82
2023/02/07 10:56:37;;;;;;;;;;;1.70;99.90;;;;;;6007017;23;20177;-82
2023/02/07 10:59:44;;;;;;;36.72;20.63;;;1.70;99.90;;;;;;6004715;23;19918;-82
2023/02/07 11:02:31;;;;;;;32.95;19.92;;;1.70;99.90;;;;;;6006230;23;20039;-81
2023/02/07 11:05:30;;;;;;;36.28;20.88;;;1.70;99.90;;;;;;6006209;23;20472;-82
2023/02/07 11:08:32;;;;;;;34.97;20.08;;;1.80;99.90;;;;;;6055521;23;20029;-82
2023/02/07 11:14:39;;;;;;;34.78;21.00;;;1.70;99.90;;;;;;6087543;23;20024;-82
2023/02/07 11:22:18;;;;;;;33.63;19.50;;;1.90;99.90;;;;;;6159807;23;20013;-82
2023/02/07 11:28:20;;;;;;;36.75;20.13;;;2.20;99.90;;;;;;6119080;23;20077;-82
2023/02/07 11:35:30;;;;;;;30.58;18.58;;;2.30;99.90;;;;;;6064725;23;20023;-82
2023/02/07 11:38:15;;;;;;;37.63;20.42;;;2.20;99.90;;;;;;6010871;23;20732;-82
2023/02/07 11:41:19;;;;;;;31.80;20.23;;;2.30;99.90;;;;;;5995288;23;20098;-83
2023/02/07 11:48:01;;;;;;;37.03;21.77;;;2.40;99.90;;;;;;5850341;24;20432;-82
2023/02/07 11:50:55;;;;;;;36.00;20.25;;;2.50;99.90;;;;;;5847284;24;20607;-82
2023/02/07 11:53:49;;;;;;;37.20;20.23;;;2.90;99.90;;;;;;5824142;24;20405;-82
2023/02/07 11:59:27;;;;;;;36.25;20.02;;;2.60;99.90;;;;;;5759345;24;20123;-83
2023/02/07 12:01:58;;;;;;;35.83;20.92;;;2.90;99.90;;;;;;5741315;24;20011;-85
2023/02/07 12:04:32;;;;;;;35.92;20.00;;;2.80;99.90;;;;;;5783768;24;20008;-82
2023/02/07 12:07:24;;;;;;;;;;;;;;;;;;;;;
2023/02/07 12:10:26;;;;;;;41.58;22.10;;;3.10;99.90;;;;;;5838748;24;20019;-82
2023/02/07 12:13:06;;;;;;;41.03;21.48;;;3.10;99.90;;;;;;5819027;24;20021;-81
2023/02/07 12:15:39;;;;;;;31.30;20.05;;;3.00;99.90;;;;;;5832587;24;20088;-82
2023/02/07 12:18:28;;;;;;;35.63;21.17;;;3.10;99.90;;;;;;5874885;24;20026;-82
2023/02/07 12:21:38;;;;;;;34.13;21.17;;;3.30;99.90;;;;;;5873532;24;20024;-81
2023/02/07 12:24:24;;;;;;;35.97;21.38;;;3.30;99.90;;;;;;5892676;24;20021;-82
2023/02/07 12:27:28;;;;;;;37.25;21.42;;;3.20;99.90;;;;;;5892912;24;20022;-82
2023/02/07 12:30:38;;;;;;;35.78;20.55;;;3.30;99.90;;;;;;5893551;24;20025;-82
2023/02/07 12:33:33;;;;;;;35.33;20.17;;;3.40;99.90;;;;;;5965739;23;20314;-85
2023/02/07 12:36:14;;;;;;;37.65;20.52;;;3.30;99.90;;;;;;6029287;23;20788;-83
2023/02/07 12:39:21;;;;;;;38.17;21.02;;;3.30;99.90;;;;;;5985136;23;20023;-83
2023/02/07 12:42:15;;;;;;;36.38;21.40;;;3.40;99.90;;;;;;5983877;23;20309;-82
2023/02/07 12:44:54;;;;;;;37.50;21.60;;;3.50;99.90;;;;;;5994494;23;20019;-83
2023/02/07 12:47:49;;;;;;;40.05;21.25;;;3.60;99.90;;;;;;6034654;23;20023;-82
2023/02/07 12:50:27;;;;;;;32.63;19.92;;;3.50;99.90;;;;;;6038514;23;20025;-83
2023/02/07 12:53:53;;;;;;;33.83;19.55;;;3.60;99.90;;;;;;6066879;23;20041;-82
2023/02/07 12:57:14;;;;;;;35.13;19.08;;;3.70;99.90;;;;;;6067657;23;20036;-83
2023/02/07 13:00:46;;;;;;;34.35;19.20;;;3.70;99.90;;;;;;6021162;23;20077;-81
2023/02/07 13:04:26;;;;;;;35.67;19.85;;;3.70;99.90;;;;;;6003178;23;20336;-83
2023/02/07 13:07:27;;;;;;;33.28;19.02;;;3.90;99.90;;;;;;6006507;23;20115;-82
2023/02/07 13:10:50;;;;;;;33.33;18.27;;;3.80;99.90;;;;;;6027323;23;20428;-82
2023/02/07 13:14:08;;;;;;;31.05;19.05;;;3.90;99.90;;;;;;6027780;23;20094;-81
2023/02/07 13:16:45;;;;;;;34.50;18.92;;;4.00;99.90;;;;;;5991605;23;20042;-82
2023/02/07 13:22:59;;;;;;;31.67;17.73;;;4.10;99.90;;;;;;6030431;23;20046;-83
2023/02/07 13:26:01;;;;;;;31.63;17.30;;;4.10;99.90;;;;;;6008064;23;20030;-82
2023/02/07 13:28:51;;;;;;;27.83;17.23;;;4.20;99.90;;;;;;5994861;23;20019;-83
2023/02/07 13:32:34;;;;;;;29.40;16.60;;;4.10;99.90;;;;;;5953384;23;20421;-82
2023/02/07 13:35:43;;;;;;;33.63;17.60;;;4.40;99.90;;;;;;5995270;23;20115;-83
2023/02/07 13:38:42;;;;;;;30.15;16.23;;;4.40;99.90;;;;;;5976674;23;20071;-82
2023/02/07 13:41:16;;;;;;;27.85;16.35;;;4.20;99.90;;;;;;6000655;23;20083;-82
2023/02/07 13:44:21;;;;;;;26.73;16.10;;;4.30;99.90;;;;;;6023642;23;20119;-82
2023/02/07 13:47:29;;;;;;;31.38;16.98;;;4.30;99.90;;;;;;5998828;23;20024;-83
2023/02/07 13:50:16;;;;;;;29.45;15.82;;;4.50;99.90;;;;;;5967235;24;20027;-84
2023/02/07 13:53:02;;;;;;;29.48;16.27;;;4.40;99.90;;;;;;5953466;23;20063;-81
2023/02/07 13:55:36;;;;;;;25.13;16.00;;;4.30;99.90;;;;;;6025220;23;20015;-83
2023/02/07 14:00:47;;;;;;;28.95;16.45;;;4.40;99.90;;;;;;6062993;23;20246;-82
2023/02/07 14:03:29;;;;;;;31.77;17.02;;;4.50;99.90;;;;;;6090466;23;20049;-83
2023/02/07 14:06:14;;;;;;;;;;;4.40;99.90;;;;;;6156710;23;20017;-83